createdAt,value
2023-05-17T00:00:15.100Z,17.06
2023-05-17T00:01:15.194Z,17.06
2023-05-17T00:02:15.281Z,17.07
2023-05-17T00:03:15.357Z,17.06
2023-05-17T00:04:15.498Z,17.05
2023-05-17T00:05:15.729Z,17.05
2023-05-17T00:06:15.628Z,17.06
2023-05-17T00:07:15.689Z,17.06
2023-05-17T00:08:15.839Z,17.06
2023-05-17T00:09:15.847Z,17.06
2023-05-17T00:10:15.918Z,17.06
2023-05-17T00:11:15.991Z,17.05
2023-05-17T00:12:16.073Z,17.04
2023-05-17T00:13:16.216Z,17.03
2023-05-17T00:14:16.240Z,17.02
2023-05-17T00:15:16.297Z,17.02
2023-05-17T00:16:16.370Z,17.02
2023-05-17T00:17:16.459Z,17.02
2023-05-17T00:18:16.654Z,17.01
2023-05-17T00:19:16.758Z,17.00
2023-05-17T00:20:16.699Z,16.99
2023-05-17T00:21:16.792Z,16.99
2023-05-17T00:22:16.851Z,16.99
2023-05-17T00:23:16.971Z,17.00
2023-05-17T00:24:17.039Z,17.01
2023-05-17T00:25:17.131Z,17.03
2023-05-17T00:26:17.150Z,17.05
2023-05-17T00:27:17.209Z,17.06
2023-05-17T00:28:17.300Z,17.06
2023-05-17T00:29:17.380Z,17.06
2023-05-17T00:30:17.449Z,17.05
2023-05-17T00:31:17.519Z,17.05
2023-05-17T00:32:17.595Z,17.04
2023-05-17T00:33:17.669Z,17.05
2023-05-17T00:34:17.748Z,17.06
2023-05-17T00:35:17.857Z,17.06
2023-05-17T00:36:17.910Z,17.07
2023-05-17T00:37:17.989Z,17.06
2023-05-17T00:38:18.059Z,17.06
2023-05-17T00:39:18.139Z,17.07
2023-05-17T00:40:24.195Z,17.08
2023-05-17T00:41:18.537Z,17.08
2023-05-17T00:42:18.384Z,17.08
2023-05-17T00:43:18.440Z,17.08
2023-05-17T00:44:18.549Z,17.08
2023-05-17T00:45:18.653Z,17.09
2023-05-17T00:46:18.730Z,17.10
2023-05-17T00:47:18.835Z,17.11
2023-05-17T00:48:18.932Z,17.12
2023-05-17T00:49:18.968Z,17.11
2023-05-17T00:50:19.051Z,17.10
2023-05-17T00:51:19.130Z,17.09
2023-05-17T00:52:19.218Z,17.10
2023-05-17T00:53:19.303Z,17.11
2023-05-17T00:54:19.384Z,17.11
2023-05-17T00:55:19.473Z,17.09
2023-05-17T00:56:20.497Z,17.07
2023-05-17T00:57:19.628Z,17.06
2023-05-17T00:58:19.691Z,17.07
2023-05-17T00:59:19.773Z,17.08
2023-05-17T01:00:19.885Z,17.09
2023-05-17T01:01:19.918Z,17.10
2023-05-17T01:02:20.033Z,17.10
2023-05-17T01:03:20.265Z,17.09
2023-05-17T01:04:20.286Z,17.08
2023-05-17T01:05:20.260Z,17.07
2023-05-17T01:06:20.344Z,17.06
2023-05-17T01:07:20.416Z,17.06
2023-05-17T01:08:20.506Z,17.07
2023-05-17T01:09:20.575Z,17.08
2023-05-17T01:10:20.663Z,17.09
2023-05-17T01:11:20.743Z,17.11
2023-05-17T01:12:20.806Z,17.13
2023-05-17T01:13:20.883Z,17.13
2023-05-17T01:14:20.953Z,17.13
2023-05-17T01:15:21.052Z,17.13
2023-05-17T01:16:21.133Z,17.13
2023-05-17T01:17:21.271Z,17.13
2023-05-17T01:18:21.329Z,17.15
2023-05-17T01:19:21.413Z,17.16
2023-05-17T01:20:21.468Z,17.16
2023-05-17T01:21:21.512Z,17.14
2023-05-17T01:22:21.582Z,17.12
2023-05-17T01:23:21.657Z,17.10
2023-05-17T01:24:21.741Z,17.10
2023-05-17T01:25:21.814Z,17.10
2023-05-17T01:26:21.892Z,17.10
2023-05-17T01:27:21.963Z,17.10
2023-05-17T01:28:22.034Z,17.08
2023-05-17T01:29:22.117Z,17.06
2023-05-17T01:30:22.204Z,17.06
2023-05-17T01:31:22.317Z,17.05
2023-05-17T01:32:22.486Z,17.05
2023-05-17T01:33:22.567Z,17.05
2023-05-17T01:34:22.581Z,17.06
2023-05-17T01:35:22.650Z,17.07
2023-05-17T01:36:22.730Z,17.08
2023-05-17T01:37:22.823Z,17.09
2023-05-17T01:38:22.954Z,17.09
2023-05-17T01:39:22.951Z,17.10
2023-05-17T01:40:23.020Z,17.09
2023-05-17T01:41:23.112Z,17.08
2023-05-17T01:42:23.256Z,17.07
2023-05-17T01:43:23.269Z,17.08
2023-05-17T01:44:23.351Z,17.08
2023-05-17T01:45:23.463Z,17.08
2023-05-17T01:46:23.535Z,17.07
2023-05-17T01:47:23.616Z,17.08
2023-05-17T01:48:23.736Z,17.09
2023-05-17T01:49:23.792Z,17.10
2023-05-17T01:50:23.861Z,17.11
2023-05-17T01:51:23.944Z,17.11
2023-05-17T01:52:24.029Z,17.11
2023-05-17T01:53:24.093Z,17.11
2023-05-17T01:54:24.169Z,17.10
2023-05-17T01:55:24.288Z,17.11
2023-05-17T01:56:24.362Z,17.12
2023-05-17T01:57:24.458Z,17.14
2023-05-17T01:58:24.530Z,17.16
2023-05-17T01:59:24.633Z,17.17
2023-05-17T02:00:24.765Z,17.17
2023-05-17T02:01:24.769Z,17.16
2023-05-17T02:02:24.864Z,17.14
2023-05-17T02:03:25.115Z,17.11
2023-05-17T02:04:25.082Z,17.11
2023-05-17T02:05:25.072Z,17.10
2023-05-17T02:06:25.157Z,17.10
2023-05-17T02:07:25.242Z,17.09
2023-05-17T02:08:25.319Z,17.10
2023-05-17T02:09:25.384Z,17.11
2023-05-17T02:10:25.468Z,17.11
2023-05-17T02:11:25.547Z,17.12
2023-05-17T02:12:25.634Z,17.12
2023-05-17T02:13:25.700Z,17.12
2023-05-17T02:14:25.786Z,17.12
2023-05-17T02:15:25.929Z,17.12
2023-05-17T02:16:25.936Z,17.12
2023-05-17T02:17:26.053Z,17.12
2023-05-17T02:18:26.165Z,17.12
2023-05-17T02:19:26.237Z,17.12
2023-05-17T02:20:26.256Z,17.13
2023-05-17T02:21:26.366Z,17.14
2023-05-17T02:22:26.422Z,17.15
2023-05-17T02:23:26.571Z,17.15
2023-05-17T02:24:26.619Z,17.15
2023-05-17T02:25:27.068Z,17.15
2023-05-17T02:26:26.779Z,17.15
2023-05-17T02:27:26.838Z,17.15
2023-05-17T02:28:26.937Z,17.14
2023-05-17T02:29:26.974Z,17.13
2023-05-17T02:30:27.050Z,17.12
2023-05-17T02:31:27.204Z,17.12
2023-05-17T02:32:27.302Z,17.13
2023-05-17T02:33:27.425Z,17.14
2023-05-17T02:34:27.384Z,17.15
2023-05-17T02:35:27.624Z,17.16
2023-05-17T02:36:27.517Z,17.15
2023-05-17T02:37:27.602Z,17.15
2023-05-17T02:38:27.676Z,17.15
2023-05-17T02:39:27.770Z,17.14
2023-05-17T02:40:27.840Z,17.14
2023-05-17T02:41:27.923Z,17.13
2023-05-17T02:42:28.005Z,17.14
2023-05-17T02:43:28.089Z,17.15
2023-05-17T02:44:28.178Z,17.16
2023-05-17T02:45:28.472Z,17.17
2023-05-17T02:46:28.322Z,17.17
2023-05-17T02:47:28.428Z,17.16
2023-05-17T02:48:28.470Z,17.15
2023-05-17T02:49:28.546Z,17.15
2023-05-17T02:50:28.628Z,17.14
2023-05-17T02:51:28.722Z,17.13
2023-05-17T02:52:28.837Z,17.13
2023-05-17T02:53:28.875Z,17.14
2023-05-17T02:54:28.956Z,17.13
2023-05-17T02:55:29.290Z,17.12
2023-05-17T02:56:29.114Z,17.11
2023-05-17T02:57:29.180Z,17.11
2023-05-17T02:58:29.289Z,17.11
2023-05-17T02:59:29.368Z,17.10
2023-05-17T03:00:29.448Z,17.10
2023-05-17T03:01:29.532Z,17.09
2023-05-17T03:02:29.641Z,17.10
2023-05-17T03:03:29.762Z,17.10
2023-05-17T03:04:29.821Z,17.11
2023-05-17T03:05:30.134Z,17.12
2023-05-17T03:06:29.904Z,17.13
2023-05-17T03:07:29.979Z,17.14
2023-05-17T03:08:30.063Z,17.15
2023-05-17T03:09:30.133Z,17.15
2023-05-17T03:10:30.214Z,17.14
2023-05-17T03:11:30.312Z,17.13
2023-05-17T03:12:30.374Z,17.13
2023-05-17T03:13:30.456Z,17.12
2023-05-17T03:14:30.523Z,17.10
2023-05-17T03:15:30.817Z,17.08
2023-05-17T03:16:30.705Z,17.07
2023-05-17T03:17:30.817Z,17.07
2023-05-17T03:18:30.992Z,17.08
2023-05-17T03:19:30.968Z,17.10
2023-05-17T03:20:31.051Z,17.11
2023-05-17T03:21:31.150Z,17.12
2023-05-17T03:22:31.216Z,17.12
2023-05-17T03:23:31.296Z,17.13
2023-05-17T03:24:31.373Z,17.12
2023-05-17T03:25:31.484Z,17.12
2023-05-17T03:26:31.519Z,17.13
2023-05-17T03:27:31.595Z,17.13
2023-05-17T03:28:31.662Z,17.15
2023-05-17T03:29:31.752Z,17.20
2023-05-17T03:30:31.860Z,17.28
2023-05-17T03:31:31.916Z,17.38
2023-05-17T03:32:32.083Z,17.48
2023-05-17T03:33:32.169Z,17.57
2023-05-17T03:34:32.165Z,17.65
2023-05-17T03:35:32.259Z,17.72
2023-05-17T03:36:32.340Z,17.78
2023-05-17T03:37:32.419Z,17.83
2023-05-17T03:38:32.503Z,17.87
2023-05-17T03:39:32.597Z,17.90
2023-05-17T03:40:32.663Z,17.91
2023-05-17T03:41:32.740Z,17.93
2023-05-17T03:42:32.815Z,17.94
2023-05-17T03:43:32.912Z,17.95
2023-05-17T03:44:32.996Z,17.96
2023-05-17T03:45:33.086Z,17.97
2023-05-17T03:46:33.166Z,18.00
2023-05-17T03:47:33.285Z,18.01
2023-05-17T03:48:35.916Z,18.01
2023-05-17T03:49:33.411Z,18.00
2023-05-17T03:50:33.473Z,17.98
2023-05-17T03:51:33.554Z,17.98
2023-05-17T03:52:33.633Z,18.00
2023-05-17T03:53:33.701Z,18.02
2023-05-17T03:54:33.776Z,18.04
2023-05-17T03:55:33.851Z,18.05
2023-05-17T03:56:33.952Z,18.07
2023-05-17T03:57:34.062Z,18.09
2023-05-17T03:58:34.096Z,18.09
2023-05-17T03:59:34.170Z,18.09
2023-05-17T04:00:34.249Z,18.10
2023-05-17T04:01:34.325Z,18.12
2023-05-17T04:02:34.436Z,18.15
2023-05-17T04:03:34.499Z,18.17
2023-05-17T04:04:34.596Z,18.20
2023-05-17T04:05:34.647Z,18.22
2023-05-17T04:06:34.729Z,18.25
2023-05-17T04:07:34.882Z,18.26
2023-05-17T04:08:34.881Z,18.27
2023-05-17T04:09:35.043Z,18.30
2023-05-17T04:10:35.052Z,18.33
2023-05-17T04:11:35.130Z,18.36
2023-05-17T04:12:35.213Z,18.40
2023-05-17T04:13:35.277Z,18.44
2023-05-17T04:14:35.364Z,18.48
2023-05-17T04:15:35.436Z,18.51
2023-05-17T04:16:35.545Z,18.54
2023-05-17T04:17:35.645Z,18.57
2023-05-17T04:18:35.728Z,18.59
2023-05-17T04:19:35.800Z,18.61
2023-05-17T04:20:35.886Z,18.63
2023-05-17T04:21:35.881Z,18.65
2023-05-17T04:22:35.967Z,18.67
2023-05-17T04:23:36.050Z,18.69
2023-05-17T04:24:36.128Z,18.71
2023-05-17T04:25:36.184Z,18.73
2023-05-17T04:26:36.269Z,18.75
2023-05-17T04:27:36.348Z,18.75
2023-05-17T04:28:36.422Z,18.75
2023-05-17T04:29:36.493Z,18.76
2023-05-17T04:30:36.577Z,18.77
2023-05-17T04:31:36.645Z,18.77
2023-05-17T04:32:36.733Z,18.75
2023-05-17T04:33:36.926Z,18.75
2023-05-17T04:34:36.873Z,18.77
2023-05-17T04:35:36.957Z,18.79
2023-05-17T04:36:37.031Z,18.80
2023-05-17T04:37:37.103Z,18.82
2023-05-17T04:38:37.185Z,18.83
2023-05-17T04:39:37.260Z,18.85
2023-05-17T04:40:37.339Z,18.86
2023-05-17T04:41:37.394Z,18.88
2023-05-17T04:42:37.504Z,18.90
2023-05-17T04:43:37.560Z,18.93
2023-05-17T04:44:37.640Z,18.95
2023-05-17T04:45:37.743Z,18.98
2023-05-17T04:46:37.784Z,19.00
2023-05-17T04:47:37.946Z,19.03
2023-05-17T04:48:38.060Z,19.04
2023-05-17T04:49:38.104Z,19.06
2023-05-17T04:50:38.111Z,19.07
2023-05-17T04:51:38.194Z,19.09
2023-05-17T04:52:38.263Z,19.12
2023-05-17T04:53:38.448Z,19.12
2023-05-17T04:54:38.439Z,19.09
2023-05-17T04:55:38.498Z,19.06
2023-05-17T04:56:38.571Z,19.05
2023-05-17T04:57:38.637Z,19.07
2023-05-17T04:58:38.714Z,19.10
2023-05-17T04:59:38.781Z,19.13
2023-05-17T05:00:38.850Z,19.16
2023-05-17T05:01:38.937Z,19.16
2023-05-17T05:02:39.033Z,19.16
2023-05-17T05:03:39.134Z,19.17
2023-05-17T05:04:39.191Z,19.19
2023-05-17T05:05:39.255Z,19.20
2023-05-17T05:06:39.322Z,19.20
2023-05-17T05:07:39.408Z,19.18
2023-05-17T05:08:39.479Z,19.16
2023-05-17T05:09:39.558Z,19.13
2023-05-17T05:10:39.720Z,19.10
2023-05-17T05:11:39.712Z,19.08
2023-05-17T05:12:39.790Z,19.09
2023-05-17T05:13:39.866Z,19.09
2023-05-17T05:14:39.941Z,19.07
2023-05-17T05:15:40.012Z,19.08
2023-05-17T05:16:40.090Z,19.09
2023-05-17T05:17:40.234Z,19.10
2023-05-17T05:18:40.414Z,19.10
2023-05-17T05:19:40.442Z,19.09
2023-05-17T05:20:40.426Z,19.10
2023-05-17T05:21:40.509Z,19.10
2023-05-17T05:22:40.581Z,19.10
2023-05-17T05:23:40.660Z,19.09
2023-05-17T05:24:40.731Z,19.07
2023-05-17T05:25:40.802Z,19.06
2023-05-17T05:26:40.891Z,19.06
2023-05-17T05:27:40.969Z,19.09
2023-05-17T05:28:41.035Z,19.10
2023-05-17T05:29:41.115Z,19.10
2023-05-17T05:30:41.198Z,19.09
2023-05-17T05:31:41.272Z,19.10
2023-05-17T05:32:41.401Z,19.11
2023-05-17T05:33:41.607Z,19.14
2023-05-17T05:34:41.560Z,19.16
2023-05-17T05:35:41.634Z,19.18
2023-05-17T05:36:41.735Z,19.21
2023-05-17T05:37:41.809Z,19.22
2023-05-17T05:38:41.965Z,19.22
2023-05-17T05:39:41.947Z,19.19
2023-05-17T05:40:42.018Z,19.14
2023-05-17T05:41:42.125Z,19.11
2023-05-17T05:42:42.160Z,19.08
2023-05-17T05:43:42.233Z,19.05
2023-05-17T05:44:42.296Z,19.03
2023-05-17T05:45:42.388Z,19.05
2023-05-17T05:46:42.465Z,19.07
2023-05-17T05:47:42.643Z,19.08
2023-05-17T05:48:42.784Z,19.09
2023-05-17T05:49:42.766Z,19.09
2023-05-17T05:50:42.803Z,19.07
2023-05-17T05:51:42.879Z,19.07
2023-05-17T05:52:42.956Z,19.10
2023-05-17T05:53:43.048Z,19.14
2023-05-17T05:54:43.103Z,19.16
2023-05-17T05:55:43.188Z,19.17
2023-05-17T05:56:43.266Z,19.16
2023-05-17T05:57:43.368Z,19.18
2023-05-17T05:58:43.430Z,19.19
2023-05-17T05:59:43.504Z,19.17
2023-05-17T06:00:43.596Z,19.14
2023-05-17T06:01:43.677Z,19.13
2023-05-17T06:02:43.918Z,19.12
2023-05-17T06:03:43.840Z,19.09
2023-05-17T06:04:45.788Z,19.07
2023-05-17T06:05:44.071Z,19.07
2023-05-17T06:06:44.118Z,19.11
2023-05-17T06:07:44.130Z,19.12
2023-05-17T06:08:44.209Z,19.10
2023-05-17T06:09:44.300Z,19.09
2023-05-17T06:10:44.362Z,19.10
2023-05-17T06:11:44.465Z,19.10
2023-05-17T06:12:44.538Z,19.09
2023-05-17T06:13:44.645Z,19.07
2023-05-17T06:14:44.730Z,19.08
2023-05-17T06:15:44.818Z,19.08
2023-05-17T06:16:44.892Z,19.07
2023-05-17T06:17:45.033Z,19.04
2023-05-17T06:18:45.090Z,19.02
2023-05-17T06:19:45.199Z,19.03
2023-05-17T06:20:45.228Z,19.03
2023-05-17T06:21:45.294Z,19.04
2023-05-17T06:22:45.367Z,19.07
2023-05-17T06:23:45.468Z,19.09
2023-05-17T06:24:45.524Z,19.10
2023-05-17T06:25:45.629Z,19.10
2023-05-17T06:26:45.712Z,19.12
2023-05-17T06:27:46.744Z,19.18
2023-05-17T06:28:45.879Z,19.23
2023-05-17T06:29:45.970Z,19.25
2023-05-17T06:30:46.053Z,19.26
2023-05-17T06:31:46.129Z,19.24
2023-05-17T06:32:46.225Z,19.20
2023-05-17T06:33:46.344Z,19.18
2023-05-17T06:34:46.392Z,19.18
2023-05-17T06:35:56.273Z,19.19
2023-05-17T06:36:46.605Z,19.20
2023-05-17T06:37:46.603Z,19.21
2023-05-17T06:38:46.674Z,19.21
2023-05-17T06:39:55.394Z,19.19
2023-05-17T06:40:46.842Z,19.19
2023-05-17T06:41:46.927Z,19.18
2023-05-17T06:42:46.997Z,19.16
2023-05-17T06:43:47.073Z,19.16
2023-05-17T06:44:47.132Z,19.15
2023-05-17T06:45:47.221Z,19.16
2023-05-17T06:46:47.273Z,19.16
2023-05-17T06:47:47.414Z,19.17
2023-05-17T06:48:50.168Z,19.16
2023-05-17T06:49:47.499Z,19.16
2023-05-17T06:50:47.607Z,19.15
2023-05-17T06:51:47.679Z,19.16
2023-05-17T06:52:47.760Z,19.17
2023-05-17T06:53:47.921Z,19.18
2023-05-17T06:54:48.032Z,19.17
2023-05-17T06:55:47.985Z,19.17
2023-05-17T06:56:48.069Z,19.18
2023-05-17T06:57:48.165Z,19.18
2023-05-17T06:58:48.239Z,19.18
2023-05-17T06:59:48.331Z,19.17
2023-05-17T07:00:48.439Z,19.15
2023-05-17T07:01:48.461Z,19.13
2023-05-17T07:02:48.632Z,19.14
2023-05-17T07:03:48.721Z,19.15
2023-05-17T07:04:48.760Z,19.16
2023-05-17T07:05:48.818Z,19.15
2023-05-17T07:06:48.882Z,19.16
2023-05-17T07:07:48.948Z,19.18
2023-05-17T07:08:49.029Z,19.19
2023-05-17T07:09:49.098Z,19.21
2023-05-17T07:10:49.187Z,19.23
2023-05-17T07:11:49.282Z,19.26
2023-05-17T07:12:49.376Z,19.29
2023-05-17T07:13:50.297Z,19.32
2023-05-17T07:14:49.570Z,19.35
2023-05-17T07:15:49.619Z,19.35
2023-05-17T07:16:49.692Z,19.30
2023-05-17T07:17:49.799Z,19.23
2023-05-17T07:18:49.897Z,19.19
2023-05-17T07:19:50.173Z,19.18
2023-05-17T07:20:50.034Z,19.18
2023-05-17T07:21:50.102Z,19.19
2023-05-17T07:22:50.178Z,19.19
2023-05-17T07:23:50.249Z,19.19
2023-05-17T07:24:50.373Z,19.20
2023-05-17T07:25:50.438Z,19.22
2023-05-17T07:26:52.282Z,19.25
2023-05-17T07:27:50.593Z,19.24
2023-05-17T07:28:50.765Z,19.15
2023-05-17T07:29:50.748Z,18.99
2023-05-17T07:30:50.828Z,18.90
2023-05-17T07:31:50.922Z,18.84
2023-05-17T07:32:51.048Z,18.76
2023-05-17T07:33:51.095Z,18.66
2023-05-17T07:34:51.161Z,18.55
2023-05-17T07:35:51.254Z,18.44
2023-05-17T07:36:51.305Z,18.32
2023-05-17T07:37:51.432Z,18.20
2023-05-17T07:38:51.465Z,18.07
2023-05-17T07:39:51.531Z,17.96
2023-05-17T07:40:51.803Z,17.87
2023-05-17T07:41:51.681Z,17.78
2023-05-17T07:42:51.785Z,17.75
2023-05-17T07:43:51.831Z,17.81
2023-05-17T07:44:51.888Z,17.81
2023-05-17T07:45:51.971Z,17.71
2023-05-17T07:46:52.103Z,17.62
2023-05-17T07:47:52.241Z,17.61
2023-05-17T07:48:52.371Z,17.63
2023-05-17T07:49:52.297Z,17.70
2023-05-17T07:50:52.394Z,17.86
2023-05-17T07:51:52.435Z,18.07
2023-05-17T07:52:52.524Z,18.29
2023-05-17T07:53:52.653Z,18.49
2023-05-17T07:54:52.671Z,18.66
2023-05-17T07:55:52.751Z,18.80
2023-05-17T07:56:52.963Z,18.92
2023-05-17T07:57:52.924Z,19.02
2023-05-17T07:58:52.999Z,19.11
2023-05-17T07:59:53.075Z,19.19
2023-05-17T08:00:53.153Z,19.26
2023-05-17T08:01:53.859Z,19.34
2023-05-17T08:02:53.312Z,19.41
2023-05-17T08:03:53.380Z,19.47
2023-05-17T08:04:53.474Z,19.51
2023-05-17T08:05:53.528Z,19.55
2023-05-17T08:06:53.578Z,19.59
2023-05-17T08:07:53.698Z,19.62
2023-05-17T08:08:53.743Z,19.66
2023-05-17T08:09:53.833Z,19.69
2023-05-17T08:10:53.914Z,19.72
2023-05-17T08:11:54.005Z,19.75
2023-05-17T08:12:54.075Z,19.78
2023-05-17T08:13:55.211Z,19.81
2023-05-17T08:14:54.233Z,19.84
2023-05-17T08:16:05.193Z,19.88
2023-05-17T08:16:54.400Z,19.91
2023-05-17T08:17:55.139Z,19.94
2023-05-17T08:18:54.694Z,19.97
2023-05-17T08:19:54.659Z,20.00
2023-05-17T08:20:54.693Z,20.03
2023-05-17T08:21:54.807Z,20.06
2023-05-17T08:22:54.838Z,20.09
2023-05-17T08:23:55.172Z,20.12
2023-05-17T08:24:55.004Z,20.15
2023-05-17T08:25:55.237Z,20.17
2023-05-17T08:26:55.298Z,20.20
2023-05-17T08:27:55.238Z,20.23
2023-05-17T08:28:55.307Z,20.25
2023-05-17T08:29:55.402Z,20.26
2023-05-17T08:30:55.449Z,20.28
2023-05-17T08:31:55.525Z,20.29
2023-05-17T08:32:55.746Z,20.30
2023-05-17T08:33:55.757Z,20.32
2023-05-17T08:34:55.825Z,20.33
2023-05-17T08:35:55.875Z,20.35
2023-05-17T08:36:56.004Z,20.37
2023-05-17T08:37:56.062Z,20.39
2023-05-17T08:38:56.136Z,20.41
2023-05-17T08:39:56.284Z,20.43
2023-05-17T08:41:53.571Z,21.55
2023-05-17T08:42:54.670Z,21.09
2023-05-17T08:43:54.732Z,20.83
2023-05-17T08:44:54.882Z,20.69
2023-05-17T08:45:55.007Z,20.63
2023-05-17T08:46:54.976Z,20.60
2023-05-17T08:47:55.160Z,20.60
2023-05-17T08:48:55.161Z,20.61
2023-05-17T08:49:55.201Z,20.63
2023-05-17T08:50:55.305Z,20.65
2023-05-17T08:51:55.426Z,20.68
2023-05-17T08:52:55.482Z,20.71
2023-05-17T08:53:55.574Z,20.73
2023-05-17T08:54:55.620Z,20.75
2023-05-17T08:55:55.733Z,20.77
2023-05-17T08:56:55.772Z,20.79
2023-05-17T08:57:55.836Z,20.80
2023-05-17T08:58:57.865Z,20.81
2023-05-17T08:59:56.022Z,20.82
2023-05-17T09:00:56.148Z,20.83
2023-05-17T09:01:56.147Z,20.84
2023-05-17T09:02:56.340Z,20.86
2023-05-17T09:03:56.327Z,20.87
2023-05-17T09:04:56.528Z,20.87
2023-05-17T09:05:56.541Z,20.88
2023-05-17T09:06:56.576Z,20.89
2023-05-17T09:07:56.644Z,20.90
2023-05-17T09:08:56.761Z,20.91
2023-05-17T09:09:56.800Z,20.92
2023-05-17T09:10:56.891Z,20.94
2023-05-17T09:11:56.962Z,20.96
2023-05-17T09:12:57.034Z,20.98
2023-05-17T09:13:57.108Z,21.01
2023-05-17T09:14:57.191Z,21.03
2023-05-17T09:15:58.169Z,21.05
2023-05-17T09:16:57.422Z,21.08
2023-05-17T09:17:57.508Z,21.10
2023-05-17T09:18:57.623Z,21.12
2023-05-17T09:19:57.730Z,21.13
2023-05-17T09:20:57.665Z,21.15
2023-05-17T09:21:57.772Z,21.17
2023-05-17T09:22:57.819Z,21.18
2023-05-17T09:24:06.096Z,21.18
2023-05-17T09:24:57.957Z,21.19
2023-05-17T09:25:58.027Z,21.19
2023-05-17T09:26:58.145Z,21.20
2023-05-17T09:27:58.178Z,21.22
2023-05-17T09:28:58.262Z,21.23
2023-05-17T09:29:58.334Z,21.25
2023-05-17T09:30:58.405Z,21.27
2023-05-17T09:31:58.501Z,21.28
2023-05-17T09:32:58.636Z,21.29
2023-05-17T09:33:58.675Z,21.31
2023-05-17T09:34:58.715Z,21.33
2023-05-17T09:35:58.786Z,21.35
2023-05-17T09:36:58.866Z,21.36
2023-05-17T09:37:58.944Z,21.37
2023-05-17T09:38:59.084Z,21.37
2023-05-17T09:39:59.102Z,21.38
2023-05-17T09:40:59.209Z,21.39
2023-05-17T09:41:59.263Z,21.39
2023-05-17T09:42:59.349Z,21.40
2023-05-17T09:43:59.411Z,21.41
2023-05-17T09:44:59.485Z,21.42
2023-05-17T09:45:59.603Z,21.43
2023-05-17T09:46:59.700Z,21.45
2023-05-17T09:47:59.798Z,21.46
2023-05-17T09:48:59.910Z,21.48
2023-05-17T09:49:59.886Z,21.49
2023-05-17T09:50:59.995Z,21.49
2023-05-17T09:52:00.036Z,21.50
2023-05-17T09:53:00.160Z,21.50
2023-05-17T09:54:00.256Z,21.50
2023-05-17T09:55:00.292Z,21.51
2023-05-17T09:56:00.392Z,21.51
2023-05-17T09:57:00.451Z,21.52
2023-05-17T09:58:00.530Z,21.53
2023-05-17T09:59:00.596Z,21.54
2023-05-17T10:00:00.664Z,21.55
2023-05-17T10:01:00.779Z,21.56
2023-05-17T10:02:00.846Z,21.58
2023-05-17T10:03:00.991Z,21.59
2023-05-17T10:04:01.057Z,21.60
2023-05-17T10:05:01.136Z,21.60
2023-05-17T10:06:01.189Z,21.61
2023-05-17T10:07:01.288Z,21.62
2023-05-17T10:08:01.371Z,21.62
2023-05-17T10:09:01.476Z,21.63
2023-05-17T10:10:01.538Z,21.64
2023-05-17T10:11:01.613Z,21.65
2023-05-17T10:12:01.687Z,21.67
2023-05-17T10:13:01.774Z,21.68
2023-05-17T10:14:01.889Z,21.69
2023-05-17T10:15:01.977Z,21.70
2023-05-17T10:16:02.063Z,21.71
2023-05-17T10:17:02.120Z,21.71
2023-05-17T10:18:02.359Z,21.72
2023-05-17T10:19:02.409Z,21.73
2023-05-17T10:20:02.483Z,21.73
2023-05-17T10:21:02.466Z,21.74
2023-05-17T10:22:21.230Z,21.75
2023-05-17T10:23:02.633Z,21.76
2023-05-17T10:24:02.668Z,21.76
2023-05-17T10:25:02.796Z,21.77
2023-05-17T10:26:02.875Z,21.77
2023-05-17T10:27:02.941Z,21.77
2023-05-17T10:28:03.029Z,21.77
2023-05-17T10:29:03.110Z,21.78
2023-05-17T10:30:03.196Z,21.78
2023-05-17T10:31:03.272Z,21.79
2023-05-17T10:32:03.360Z,21.79
2023-05-17T10:33:03.523Z,21.79
2023-05-17T10:34:03.559Z,21.79
2023-05-17T10:35:11.525Z,21.79
2023-05-17T10:36:03.719Z,21.79
2023-05-17T10:37:03.743Z,21.78
2023-05-17T10:38:03.826Z,21.78
2023-05-17T10:39:03.932Z,21.78
2023-05-17T10:40:04.013Z,21.78
2023-05-17T10:41:04.135Z,21.78
2023-05-17T10:42:14.304Z,21.77
2023-05-17T10:43:04.303Z,21.76
2023-05-17T10:44:04.325Z,21.76
2023-05-17T10:45:04.432Z,21.76
2023-05-17T10:46:04.507Z,21.75
2023-05-17T10:47:04.565Z,21.75
2023-05-17T10:48:04.698Z,21.75
2023-05-17T10:49:04.757Z,21.76
2023-05-17T10:50:04.771Z,21.76
2023-05-17T10:51:04.854Z,21.77
2023-05-17T10:52:04.953Z,21.78
2023-05-17T10:53:05.032Z,21.78
2023-05-17T10:54:05.138Z,21.79
2023-05-17T10:55:05.218Z,21.80
2023-05-17T10:56:05.305Z,21.80
2023-05-17T10:57:06.560Z,21.81
2023-05-17T10:58:05.451Z,21.81
2023-05-17T10:59:05.527Z,21.81
2023-05-17T11:00:05.627Z,21.81
2023-05-17T11:01:05.724Z,21.81
2023-05-17T11:02:05.822Z,21.82
2023-05-17T11:03:05.929Z,21.83
2023-05-17T11:04:06.005Z,21.83
2023-05-17T11:05:06.185Z,21.83
2023-05-17T11:06:12.665Z,21.83
2023-05-17T11:07:07.904Z,21.82
2023-05-17T11:08:06.336Z,21.82
2023-05-17T11:09:06.426Z,21.81
2023-05-17T11:10:06.494Z,21.81
2023-05-17T11:11:06.575Z,21.81
2023-05-17T11:12:06.679Z,21.83
2023-05-17T11:13:06.750Z,21.84
2023-05-17T11:14:06.830Z,21.85
2023-05-17T11:15:08.561Z,21.87
2023-05-17T11:16:06.997Z,21.89
2023-05-17T11:17:07.094Z,21.92
2023-05-17T11:18:13.179Z,21.95
2023-05-17T11:19:07.456Z,21.97
2023-05-17T11:20:07.534Z,21.98
2023-05-17T11:21:07.760Z,22.00
2023-05-17T11:22:07.511Z,22.01
2023-05-17T11:23:07.558Z,22.02
2023-05-17T11:24:07.648Z,22.02
2023-05-17T11:25:07.714Z,22.03
2023-05-17T11:26:15.631Z,22.04
2023-05-17T11:27:07.897Z,22.05
2023-05-17T11:28:08.005Z,22.05
2023-05-17T11:29:08.071Z,22.06
2023-05-17T11:30:08.143Z,22.06
2023-05-17T11:31:08.231Z,22.06
2023-05-17T11:32:08.288Z,22.05
2023-05-17T11:33:20.508Z,22.05
2023-05-17T11:34:08.534Z,22.05
2023-05-17T11:35:08.523Z,22.05
2023-05-17T11:36:08.593Z,22.05
2023-05-17T11:37:08.684Z,22.05
2023-05-17T11:38:08.788Z,22.06
2023-05-17T11:39:09.016Z,22.07
2023-05-17T11:40:08.929Z,22.08
2023-05-17T11:41:13.111Z,22.09
2023-05-17T11:42:09.079Z,22.09
2023-05-17T11:43:09.183Z,22.09
2023-05-17T11:44:09.243Z,22.10
2023-05-17T11:45:09.329Z,22.11
2023-05-17T11:46:09.373Z,22.12
2023-05-17T11:47:09.815Z,22.13
2023-05-17T11:48:09.644Z,22.13
2023-05-17T11:49:10.152Z,22.14
2023-05-17T11:50:09.702Z,22.13
2023-05-17T11:51:09.773Z,22.12
2023-05-17T11:52:09.856Z,22.12
2023-05-17T11:53:09.941Z,22.11
2023-05-17T11:54:10.005Z,22.10
2023-05-17T11:55:10.073Z,22.10
2023-05-17T11:56:10.141Z,22.09
2023-05-17T11:57:10.203Z,22.08
2023-05-17T11:58:10.286Z,22.07
2023-05-17T11:59:10.461Z,22.07
2023-05-17T12:00:10.450Z,22.07
2023-05-17T12:01:10.582Z,22.08
2023-05-17T12:02:10.605Z,22.09
2023-05-17T12:03:10.790Z,22.09
2023-05-17T12:04:10.834Z,22.09
2023-05-17T12:05:10.952Z,22.09
2023-05-17T12:06:11.054Z,22.09
2023-05-17T12:07:11.104Z,22.10
2023-05-17T12:08:11.159Z,22.10
2023-05-17T12:09:11.356Z,22.11
2023-05-17T12:10:11.338Z,22.13
2023-05-17T12:11:11.395Z,22.14
2023-05-17T12:12:11.489Z,22.14
2023-05-17T12:13:11.512Z,22.14
2023-05-17T12:14:11.576Z,22.11
2023-05-17T12:15:11.701Z,21.79
2023-05-17T12:16:11.774Z,21.10
2023-05-17T12:17:11.853Z,20.28
2023-05-17T12:18:12.064Z,19.59
2023-05-17T12:19:12.181Z,19.13
2023-05-17T12:20:12.132Z,18.73
2023-05-17T12:21:12.145Z,18.40
2023-05-17T12:22:12.507Z,18.21
2023-05-17T12:23:12.322Z,18.06
2023-05-17T12:24:12.450Z,17.96
2023-05-17T12:25:12.496Z,17.94
2023-05-17T12:26:12.572Z,18.01
2023-05-17T12:27:12.664Z,18.14
2023-05-17T12:28:12.727Z,18.26
2023-05-17T12:29:12.811Z,18.36
2023-05-17T12:30:12.948Z,18.40
2023-05-17T12:31:12.994Z,18.42
2023-05-17T12:32:13.016Z,18.49
2023-05-17T12:33:13.162Z,18.64
2023-05-17T12:34:13.297Z,18.85
2023-05-17T12:35:13.287Z,19.11
2023-05-17T12:36:13.366Z,19.38
2023-05-17T12:37:13.439Z,19.61
2023-05-17T12:38:13.571Z,19.82
2023-05-17T12:39:13.606Z,20.00
2023-05-17T12:40:13.667Z,20.15
2023-05-17T12:41:14.931Z,20.28
2023-05-17T12:42:13.850Z,20.37
2023-05-17T12:43:13.883Z,20.45
2023-05-17T12:44:16.026Z,20.51
2023-05-17T12:45:14.034Z,20.56
2023-05-17T12:46:14.128Z,20.61
2023-05-17T12:47:14.211Z,20.65
2023-05-17T12:48:14.384Z,20.69
2023-05-17T12:49:14.393Z,20.73
2023-05-17T12:50:14.437Z,20.76
2023-05-17T12:51:14.515Z,20.78
2023-05-17T12:52:14.576Z,20.80
2023-05-17T12:53:14.737Z,20.82
2023-05-17T12:54:14.737Z,20.84